Time;durP1;ratioP1;P1;durP2;ratioP2;P2;SDS_P1;SDS_P2;PMS_P1;PMS_P2;Temp;Humidity;BMP_temperature;BMP_pressure;BME280_temperature;BME280_humidity;BME280_pressure;Samples;Min_cycle;Max_cycle;Signal;HPM_P1;HPM_P2
2022/10/19 00:02:37;;;;;;;10.17;9.27;;;;;;;19.95;36.21;95670.69;6107804;28;103616;-68
2022/10/19 00:05:41;;;;;;;10.60;9.70;;;;;;;19.95;36.49;95662.72;6106147;28;103071;-68
2022/10/19 00:08:45;;;;;;;9.63;8.83;;;;;;;19.97;36.46;95670.41;6112173;28;104706;-68
2022/10/19 00:11:49;;;;;;;10.30;9.43;;;;;;;19.98;36.43;95664.03;6111527;28;103168;-69
2022/10/19 00:14:52;;;;;;;9.80;9.00;;;;;;;19.95;36.34;95654.75;6101180;28;103080;-68
2022/10/19 00:17:56;;;;;;;10.47;9.57;;;;;;;19.95;36.75;95653.97;6110398;28;103161;-68
2022/10/19 00:21:04;;;;;;;9.80;8.80;;;;;;;19.94;36.35;95655.03;6111829;28;103259;-68
2022/10/19 00:24:08;;;;;;;10.10;9.37;;;;;;;19.92;36.25;95651.88;6111186;28;103090;-68
2022/10/19 00:27:11;;;;;;;9.97;9.07;;;;;;;19.93;36.19;95646.28;6100009;28;103193;-67
2022/10/19 00:30:14;;;;;;;10.10;9.20;;;;;;;19.92;36.53;95647.34;6111535;28;103240;-68
2022/10/19 00:33:20;;;;;;;10.43;9.53;;;;;;;19.88;36.30;95630.38;6109992;28;103351;-68
2022/10/19 00:36:29;;;;;;;9.83;9.03;;;;;;;19.91;36.28;95637.00;6110196;28;103458;-67
2022/10/19 00:39:32;;;;;;;9.70;8.90;;;;;;;19.93;36.41;95621.59;6100235;28;103234;-68
2022/10/19 00:42:35;;;;;;;9.80;8.90;;;;;;;19.91;36.62;95615.75;6111170;28;103120;-68
2022/10/19 00:45:39;;;;;;;10.07;9.27;;;;;;;19.87;36.24;95607.56;6111273;28;102844;-72
2022/10/19 00:48:42;;;;;;;9.20;8.40;;;;;;;19.88;36.38;95605.69;6091048;28;103124;-69
2022/10/19 00:51:49;;;;;;;9.33;8.47;;;;;;;19.87;36.27;95596.94;6105952;28;103029;-69
2022/10/19 00:54:54;;;;;;;9.57;8.77;;;;;;;19.84;36.25;95592.19;6110519;28;103228;-68
2022/10/19 00:57:57;;;;;;;9.53;8.73;;;;;;;19.86;36.20;95591.91;6109729;28;103283;-68
2022/10/19 01:01:04;;;;;;;8.80;8.10;;;;;;;19.87;36.31;95590.84;6100089;28;103173;-68
2022/10/19 01:04:09;;;;;;;8.37;7.70;;;;;;;19.85;36.39;95591.13;6108753;28;103012;-69
2022/10/19 01:07:14;;;;;;;8.57;7.87;;;;;;;19.84;36.17;95589.53;6111011;28;103010;-68
2022/10/19 01:10:20;;;;;;;8.87;7.97;;;;;;;19.85;36.28;95580.50;6110677;28;103644;-69
2022/10/19 01:13:36;;;;;;;9.10;8.40;;;;;;;19.83;36.30;95574.66;6101163;28;103538;-68
2022/10/19 01:16:49;;;;;;;8.60;7.90;;;;;;;19.84;36.20;95578.13;6110839;28;106220;-69
2022/10/19 01:20:26;;;;;;;8.67;7.97;;;;;;;19.83;36.12;95576.53;6111449;28;103240;-68
2022/10/19 01:24:03;;;;;;;7.80;7.20;;;;;;;19.83;36.14;95560.59;6095568;28;106096;-69
2022/10/19 01:27:35;;;;;;;8.27;7.57;;;;;;;19.85;36.01;95566.41;6105170;28;103120;-70
2022/10/19 01:30:49;;;;;;;8.10;7.40;;;;;;;19.86;36.13;95565.34;6111480;28;103204;-63
2022/10/19 01:33:58;;;;;;;8.30;7.60;;;;;;;19.81;36.22;95557.41;6099421;28;103417;-64
2022/10/19 01:37:07;;;;;;;8.80;8.03;;;;;;;19.79;36.18;95554.22;6105620;28;103341;-63
2022/10/19 01:40:15;;;;;;;8.03;7.33;;;;;;;19.80;36.21;95551.31;6113720;28;103124;-67
2022/10/19 01:43:26;;;;;;;7.83;7.20;;;;;;;19.79;36.27;95549.72;6115340;28;106277;-67
2022/10/19 01:46:37;;;;;;;8.43;7.73;;;;;;;19.78;36.09;95550.78;6104684;28;103041;-67
2022/10/19 01:49:44;;;;;;;8.47;7.80;;;;;;;19.78;36.29;95552.66;6114020;28;103317;-67
2022/10/19 01:52:50;;;;;;;8.03;7.33;;;;;;;19.77;36.18;95545.75;6094373;28;103264;-69
2022/10/19 01:55:56;;;;;;;7.80;7.10;;;;;;;19.75;36.12;95547.91;6113446;28;104298;-68
2022/10/19 01:59:03;;;;;;;7.80;7.20;;;;;;;19.77;36.26;95551.84;6103670;28;103279;-67
2022/10/19 02:02:10;;;;;;;7.83;7.23;;;;;;;19.77;36.04;95546.56;6112618;28;103088;-67
2022/10/19 02:05:14;;;;;;;7.60;6.83;;;;;;;19.76;35.79;95538.88;6114360;28;103014;-68
2022/10/19 02:08:24;;;;;;;7.60;7.00;;;;;;;19.75;36.02;95545.25;6113458;28;103068;-67
2022/10/19 02:11:28;;;;;;;8.50;7.80;;;;;;;19.76;35.94;95539.66;6105977;28;103088;-67
2022/10/19 02:14:37;;;;;;;7.87;7.17;;;;;;;19.72;36.01;95534.13;6113799;28;103142;-67
2022/10/19 02:17:46;;;;;;;7.50;6.90;;;;;;;19.73;36.13;95534.91;6113529;28;103944;-67
2022/10/19 02:20:49;;;;;;;8.43;7.73;;;;;;;19.71;36.10;95535.19;6104513;28;104765;-68
2022/10/19 02:23:52;;;;;;;7.93;7.33;;;;;;;19.77;36.31;95535.13;6113531;28;103349;-67
2022/10/19 02:26:56;;;;;;;7.30;6.70;;;;;;;19.70;36.23;95536.25;6114034;28;103275;-70
2022/10/19 02:30:00;;;;;;;7.90;7.30;;;;;;;19.71;36.22;95537.84;6113000;28;103339;-67
2022/10/19 02:33:04;;;;;;;7.53;6.93;;;;;;;19.70;36.23;95530.94;6102040;28;103192;-67
2022/10/19 02:36:08;;;;;;;7.83;7.23;;;;;;;19.68;36.23;95538.41;6113202;28;103166;-67
2022/10/19 02:39:11;;;;;;;7.73;7.10;;;;;;;19.67;36.15;95533.38;6112798;28;103258;-67
2022/10/19 02:42:20;;;;;;;7.83;7.13;;;;;;;19.65;36.19;95536.28;6112626;28;103444;-67
2022/10/19 02:45:28;;;;;;;7.90;7.20;;;;;;;19.66;35.98;95532.59;6103576;28;105800;-67
2022/10/19 02:48:33;;;;;;;9.30;8.40;;;;;;;19.66;35.97;95531.78;6113091;28;103430;-66
2022/10/19 02:51:39;;;;;;;7.00;6.50;;;;;;;19.66;35.92;95529.94;6113460;28;103135;-67
2022/10/19 02:54:44;;;;;;;7.90;7.30;;;;;;;19.67;36.14;95526.19;6108385;28;103270;-67
2022/10/19 02:57:47;;;;;;;8.57;7.87;;;;;;;19.63;36.18;95517.19;6108477;28;104030;-67
2022/10/19 03:00:50;;;;;;;7.50;6.80;;;;;;;19.67;35.95;95520.88;6111831;28;103066;-67
2022/10/19 03:03:55;;;;;;;7.60;7.00;;;;;;;19.67;36.01;95512.13;6112056;28;103028;-66
2022/10/19 03:06:58;;;;;;;7.73;7.03;;;;;;;19.68;36.05;95514.50;6101253;28;104326;-67
2022/10/19 03:10:01;;;;;;;7.47;6.87;;;;;;;19.69;36.51;95517.94;6111807;28;103080;-68
2022/10/19 03:13:04;;;;;;;7.93;7.33;;;;;;;19.69;35.98;95515.31;6101912;28;106549;-65
2022/10/19 03:16:08;;;;;;;6.70;6.20;;;;;;;19.70;36.19;95520.31;6112066;28;103224;-67
2022/10/19 03:19:12;;;;;;;7.10;6.50;;;;;;;19.72;36.39;95528.00;6103305;28;103295;-66
2022/10/19 03:22:15;;;;;;;7.30;6.40;;;;;;;19.68;36.29;95522.47;6112664;28;102872;-61
2022/10/19 03:25:18;;;;;;;7.97;6.40;;;;;;;19.52;34.82;95528.97;6111446;28;103309;-66
2022/10/19 03:28:21;;;;;;;6.50;5.57;;;;;;;19.43;34.26;95526.09;6112610;28;103248;-68
2022/10/19 03:31:25;;;;;;;6.80;6.20;;;;;;;19.36;33.96;95535.41;6101294;28;103105;-68
2022/10/19 03:34:30;;;;;;;12.67;11.47;;;;;;;19.32;33.92;95526.41;6112278;28;103043;-67
2022/10/19 03:37:33;;;;;;;12.53;11.33;;;;;;;19.22;33.44;95534.44;6110860;28;102855;-68
2022/10/19 03:40:36;;;;;;;10.40;9.40;;;;;;;19.16;33.26;95530.25;6107955;28;103246;-68
2022/10/19 03:43:40;;;;;;;11.17;10.20;;;;;;;19.12;33.50;95527.31;6106240;28;103241;-65
2022/10/19 03:46:43;;;;;;;21.50;19.70;;;;;;;19.13;33.03;95518.31;6111000;28;103213;-65
2022/10/19 03:49:49;;;;;;;12.83;10.80;;;;;;;19.05;33.03;95519.69;6111434;28;103038;-65
2022/10/19 03:52:52;;;;;;;12.40;11.17;;;;;;;19.09;33.25;95520.72;6100345;28;103110;-64
2022/10/19 03:56:01;;;;;;;10.90;9.80;;;;;;;19.27;33.18;95515.84;6110383;28;103360;-65
2022/10/19 03:59:06;;;;;;;9.90;9.10;;;;;;;19.29;33.39;95506.53;6110481;28;103311;-63
2022/10/19 04:02:09;;;;;;;10.40;9.30;;;;;;;19.34;34.29;95511.81;6111800;28;103277;-64
2022/10/19 04:05:13;;;;;;;21.33;19.30;;;;;;;19.46;34.23;95510.69;6099520;28;104060;-64
2022/10/19 04:08:16;;;;;;;29.93;27.33;;;;;;;19.50;34.22;95509.88;6110766;28;103542;-63
2022/10/19 04:11:22;;;;;;;24.30;22.00;;;;;;;19.43;33.32;95514.69;6111397;28;104305;-68
2022/10/19 04:14:25;;;;;;;17.97;16.47;;;;;;;19.52;34.66;95513.03;6108819;28;104111;-63
2022/10/19 04:17:34;;;;;;;14.70;13.20;;;;;;;19.51;33.56;95510.66;6102286;28;104112;-63
2022/10/19 04:20:41;;;;;;;13.83;12.73;;;;;;;19.50;32.92;95509.09;6112116;28;103251;-65
2022/10/19 04:23:44;;;;;;;11.80;10.70;;;;;;;19.30;32.74;95500.16;6110718;28;103079;-63
2022/10/19 04:26:50;;;;;;;10.43;9.40;;;;;;;19.28;32.46;95496.97;6104443;28;103566;-63
2022/10/19 04:29:53;;;;;;;10.23;9.33;;;;;;;19.27;32.29;95494.59;6109502;28;103210;-63
2022/10/19 04:32:56;;;;;;;10.27;9.37;;;;;;;19.28;32.11;95493.53;6109616;28;103110;-63
2022/10/19 04:36:01;;;;;;;10.17;9.27;;;;;;;19.20;32.01;95494.13;6108957;28;104255;-63
2022/10/19 04:39:05;;;;;;;10.10;9.20;;;;;;;19.17;31.84;95495.47;6099117;28;104265;-63
2022/10/19 04:42:08;;;;;;;9.77;8.87;;;;;;;19.11;31.99;95492.06;6109888;28;103617;-64
2022/10/19 04:45:11;;;;;;;10.67;9.57;;;;;;;19.11;32.10;95492.06;6110467;28;104016;-63
2022/10/19 04:48:14;;;;;;;9.50;8.53;;;;;;;19.08;31.68;95491.81;6111741;28;103332;-63
2022/10/19 04:51:20;;;;;;;9.93;8.93;;;;;;;19.07;32.05;95491.03;6101352;28;103158;-63
2022/10/19 04:54:23;;;;;;;12.50;10.23;;;;;;;19.07;31.79;95493.69;6111775;28;104385;-62
2022/10/19 04:57:26;;;;;;;11.03;9.00;;;;;;;18.80;31.56;95495.94;6112048;28;103227;-63
2022/10/19 05:00:29;;;;;;;11.83;9.83;;;;;;;18.49;31.99;95490.78;6105290;28;103145;-67
2022/10/19 05:03:32;;;;;;;12.90;9.10;;;;;;;18.48;32.20;95494.50;6106337;28;103579;-68
2022/10/19 05:06:36;;;;;;;9.33;8.43;;;;;;;18.48;31.95;95491.03;6112837;28;103072;-68
2022/10/19 05:09:40;;;;;;;11.47;9.27;;;;;;;18.50;32.11;95489.72;6115646;28;103102;-69
2022/10/19 05:12:43;;;;;;;10.77;9.53;;;;;;;18.53;32.20;95494.47;6105191;28;103263;-68
2022/10/19 05:15:55;;;;;;;12.07;10.03;;;;;;;18.51;31.73;95493.94;6116150;28;103277;-68
2022/10/19 05:18:58;;;;;;;11.43;9.47;;;;;;;18.53;31.85;95493.66;6115972;28;103158;-68
2022/10/19 05:22:03;;;;;;;10.53;9.30;;;;;;;18.46;31.61;95491.28;6115453;28;103116;-68
2022/10/19 05:25:07;;;;;;;10.37;9.27;;;;;;;18.46;31.70;95490.50;6105633;28;103446;-68
2022/10/19 05:28:10;;;;;;;12.07;10.90;;;;;;;18.44;31.76;95493.41;6115356;28;103248;-68
2022/10/19 05:31:15;;;;;;;13.53;10.97;;;;;;;18.40;31.81;95483.66;6115482;28;103501;-69
2022/10/19 05:34:18;;;;;;;13.20;11.80;;;;;;;18.37;31.73;95492.94;6110784;28;103106;-68
2022/10/19 05:37:24;;;;;;;14.43;11.37;;;;;;;18.34;31.80;95504.06;6109168;28;103740;-66
2022/10/19 05:40:27;;;;;;;13.83;12.17;;;;;;;18.33;31.65;95504.34;6115078;28;103026;-67
2022/10/19 05:43:30;;;;;;;17.63;12.53;;;;;;;18.29;31.80;95490.81;6115107;28;103264;-67
2022/10/19 05:46:34;;;;;;;14.07;12.03;;;;;;;18.31;31.93;95493.19;6106587;28;104187;-67
2022/10/19 05:49:37;;;;;;;15.93;12.20;;;;;;;18.26;31.54;95496.66;6114983;28;103498;-67
2022/10/19 05:52:41;;;;;;;13.60;12.17;;;;;;;18.29;31.82;95498.78;6115593;28;103271;-67
2022/10/19 05:55:44;;;;;;;12.80;10.70;;;;;;;18.32;31.92;95490.31;6114755;28;103241;-67
2022/10/19 05:58:48;;;;;;;12.73;11.43;;;;;;;18.38;32.09;95489.22;6104186;28;103408;-69
2022/10/19 06:01:51;;;;;;;12.50;11.20;;;;;;;18.50;31.74;95499.50;6115106;28;103241;-67
2022/10/19 06:04:54;;;;;;;12.30;11.00;;;;;;;18.58;31.75;95492.88;6114733;28;103264;-67
2022/10/19 06:07:59;;;;;;;11.93;10.73;;;;;;;18.70;31.73;95496.81;6113615;28;103174;-67
2022/10/19 06:11:07;;;;;;;10.20;9.30;;;;;;;18.78;31.51;95500.72;6104483;28;103105;-67
2022/10/19 06:14:13;;;;;;;10.10;9.20;;;;;;;18.88;31.52;95506.00;6114208;28;103591;-67
2022/10/19 06:17:16;;;;;;;11.00;10.00;;;;;;;19.01;31.52;95505.41;6113809;28;103257;-67
2022/10/19 06:20:19;;;;;;;10.67;9.67;;;;;;;19.19;31.35;95511.13;6104567;28;103265;-67
2022/10/19 06:23:23;;;;;;;12.23;10.97;;;;;;;19.29;31.68;95519.78;6113860;28;103260;-67
2022/10/19 06:26:27;;;;;;;12.67;11.13;;;;;;;19.42;31.42;95523.72;6115408;28;103222;-67
2022/10/19 06:29:30;;;;;;;14.50;11.47;;;;;;;19.53;31.48;95517.28;6114740;28;102946;-67
2022/10/19 06:32:33;;;;;;;14.97;10.07;;;;;;;19.65;31.25;95520.34;6105873;28;103512;-67
2022/10/19 06:35:37;;;;;;;11.07;9.57;;;;;;;19.75;31.13;95526.66;6113966;28;103256;-66
2022/10/19 06:38:42;;;;;;;12.23;9.87;;;;;;;19.83;31.03;95515.44;6113815;28;103076;-67
2022/10/19 06:41:45;;;;;;;12.67;9.60;;;;;;;19.92;31.00;95527.03;6114121;28;103095;-67
2022/10/19 06:44:48;;;;;;;10.87;9.73;;;;;;;19.99;31.09;95515.00;6103370;28;103256;-67
2022/10/19 06:47:51;;;;;;;10.90;9.00;;;;;;;20.08;31.05;95519.72;6114017;28;103005;-67
2022/10/19 06:50:58;;;;;;;9.00;8.10;;;;;;;20.17;30.76;95515.41;6113617;28;103295;-67
2022/10/19 06:54:03;;;;;;;9.60;8.60;;;;;;;20.28;30.61;95517.69;6108666;28;103714;-67
2022/10/19 06:57:06;;;;;;;10.53;9.50;;;;;;;20.35;30.49;95508.59;6108078;28;103091;-67
2022/10/19 07:00:11;;;;;;;17.33;8.67;;;;;;;20.40;30.67;95503.22;6114073;28;103728;-67
2022/10/19 07:03:14;;;;;;;13.40;9.37;;;;;;;20.45;30.69;95495.16;6113941;28;103206;-67
2022/10/19 07:06:17;;;;;;;10.33;9.23;;;;;;;20.48;30.72;95491.94;6104031;28;103758;-68
2022/10/19 07:09:22;;;;;;;10.73;9.00;;;;;;;20.54;30.42;95491.63;6112891;28;103239;-68
2022/10/19 07:12:25;;;;;;;11.37;9.70;;;;;;;20.63;30.62;95481.13;6113555;28;103564;-68
2022/10/19 07:15:28;;;;;;;9.50;8.60;;;;;;;20.66;30.47;95490.41;6113149;28;103100;-68
2022/10/19 07:18:31;;;;;;;11.10;9.70;;;;;;;20.71;30.31;95485.81;6103188;28;103267;-67
2022/10/19 07:21:40;;;;;;;12.47;9.67;;;;;;;20.76;30.13;95482.28;6113356;28;103430;-68
2022/10/19 07:24:45;;;;;;;9.90;8.80;;;;;;;20.80;30.00;95483.31;6113590;28;103000;-68
2022/10/19 07:27:48;;;;;;;9.00;8.20;;;;;;;20.86;30.21;95477.66;6107756;28;103119;-68
2022/10/19 07:30:51;;;;;;;8.80;7.90;;;;;;;20.91;29.88;95469.59;6107996;28;103240;-68
2022/10/19 07:33:55;;;;;;;8.30;6.43;;;;;;;20.96;29.72;95481.22;6112979;28;103229;-68
2022/10/19 07:36:58;;;;;;;7.30;6.60;;;;;;;21.00;29.63;95471.59;6113534;28;103267;-68
2022/10/19 07:40:03;;;;;;;7.93;6.97;;;;;;;21.06;29.55;95467.81;6103111;28;103815;-68
2022/10/19 07:43:06;;;;;;;6.77;6.07;;;;;;;21.07;29.45;95464.88;6113162;28;104053;-68
2022/10/19 07:46:12;;;;;;;6.67;5.97;;;;;;;21.13;29.44;95460.25;6113571;28;103595;-68
2022/10/19 07:49:17;;;;;;;8.07;7.17;;;;;;;21.17;29.92;95458.59;6113367;28;102851;-68
2022/10/19 07:52:20;;;;;;;7.00;6.17;;;;;;;21.11;30.09;95451.78;6102319;28;103281;-68
2022/10/19 07:55:25;;;;;;;8.40;6.27;;;;;;;21.14;30.01;95445.88;6112468;28;103232;-68
2022/10/19 07:58:28;;;;;;;6.27;5.77;;;;;;;21.19;30.01;95441.28;6113399;28;106229;-68
2022/10/19 08:01:32;;;;;;;6.90;6.23;;;;;;;21.25;30.24;95439.31;6112909;28;103014;-68
2022/10/19 08:04:38;;;;;;;9.57;6.57;;;;;;;21.29;30.13;95431.53;6102416;28;103086;-68
2022/10/19 08:08:01;;;;;;;7.60;6.77;;;;;;;21.30;30.01;95433.91;6112886;28;102729;-69
2022/10/19 08:11:08;;;;;;;9.53;8.23;;;;;;;21.33;30.06;95428.00;6112094;28;102796;-68
2022/10/19 08:14:11;;;;;;;9.00;8.20;;;;;;;21.35;30.14;95435.72;6103223;28;107399;-68
2022/10/19 08:17:16;;;;;;;9.80;8.90;;;;;;;21.39;30.21;95436.72;6112685;28;103262;-68
2022/10/19 08:20:19;;;;;;;8.80;8.00;;;;;;;21.39;29.92;95432.19;6112184;28;103376;-68
2022/10/19 08:23:23;;;;;;;9.70;8.57;;;;;;;21.42;30.29;95426.25;6112769;28;103782;-68
2022/10/19 08:26:30;;;;;;;8.87;7.90;;;;;;;21.44;30.35;95425.97;6101710;28;104232;-68
2022/10/19 08:29:33;;;;;;;8.57;7.73;;;;;;;21.48;30.23;95425.09;6112207;28;103283;-68
2022/10/19 08:32:36;;;;;;;8.87;8.10;;;;;;;21.47;30.38;95423.50;6111974;28;103309;-68
2022/10/19 08:35:39;;;;;;;8.90;7.93;;;;;;;21.48;30.34;95425.09;6109402;28;103121;-67
2022/10/19 08:38:43;;;;;;;8.57;7.77;;;;;;;21.51;30.39;95423.75;6105925;28;103270;-68
2022/10/19 08:41:59;;;;;;;10.67;7.27;;;;;;;21.51;30.68;95410.44;6110094;28;103251;-68
2022/10/19 08:45:16;;;;;;;9.07;8.27;;;;;;;21.54;30.35;95409.03;6111969;28;103122;-69
2022/10/19 08:48:25;;;;;;;9.33;8.43;;;;;;;21.49;30.80;95404.56;6101125;28;103258;-68
2022/10/19 08:51:33;;;;;;;9.63;8.73;;;;;;;21.50;30.67;95404.28;6111881;28;104250;-69
2022/10/19 08:54:42;;;;;;;10.90;8.97;;;;;;;21.49;31.05;95393.94;6112058;28;103078;-67
2022/10/19 08:57:53;;;;;;;9.87;8.87;;;;;;;21.48;31.22;95400.34;6111634;28;103024;-67
2022/10/19 09:01:04;;;;;;;10.50;9.23;;;;;;;21.46;31.11;95392.63;6102401;28;103547;-67
2022/10/19 09:04:14;;;;;;;10.20;9.07;;;;;;;21.44;30.91;95389.50;6111631;28;103532;-68
2022/10/19 09:07:29;;;;;;;11.10;9.30;;;;;;;21.44;31.13;95400.13;6111323;28;103211;-67
2022/10/19 09:10:35;;;;;;;10.00;9.00;;;;;;;21.43;31.52;95393.22;6101009;28;103091;-68
2022/10/19 09:13:43;;;;;;;11.03;9.90;;;;;;;21.41;31.36;95384.75;6110185;28;103240;-67
2022/10/19 09:17:12;;;;;;;11.50;9.20;;;;;;;21.40;31.64;95383.19;6111400;28;102965;-67
2022/10/19 09:20:18;;;;;;;9.60;8.60;;;;;;;21.41;31.66;95374.09;6111539;28;103525;-67
2022/10/19 09:23:28;;;;;;;10.77;9.60;;;;;;;21.44;31.62;95372.72;6101131;28;103160;-67
2022/10/19 09:26:36;;;;;;;9.40;8.60;;;;;;;21.42;31.79;95367.69;6111735;28;103921;-67
2022/10/19 09:29:44;;;;;;;8.43;7.60;;;;;;;21.40;32.04;95375.19;6111497;28;103438;-67
2022/10/19 09:32:50;;;;;;;9.00;8.20;;;;;;;21.42;31.62;95370.34;6106046;28;103355;-67
2022/10/19 09:35:56;;;;;;;9.00;7.60;;;;;;;21.46;32.05;95374.00;6107287;28;104130;-69
2022/10/19 09:38:59;;;;;;;9.93;7.00;;;;;;;21.51;31.93;95373.94;6110941;28;103256;-68
2022/10/19 09:42:10;;;;;;;7.53;6.80;;;;;;;21.54;31.79;95377.88;6110766;28;103272;-67
2022/10/19 09:45:29;;;;;;;7.03;6.43;;;;;;;21.54;32.14;95374.44;6100517;28;103179;-67
2022/10/19 09:48:39;;;;;;;7.83;6.93;;;;;;;21.52;32.10;95377.38;6110966;28;103419;-68
2022/10/19 09:51:49;;;;;;;6.97;6.27;;;;;;;21.49;31.96;95373.41;6113295;28;103076;-67
2022/10/19 09:55:01;;;;;;;7.73;6.93;;;;;;;21.52;31.89;95370.19;6114885;28;103048;-67
2022/10/19 09:58:09;;;;;;;7.40;6.70;;;;;;;21.56;31.77;95369.59;6105713;28;103503;-67
2022/10/19 10:01:30;;;;;;;7.80;6.93;;;;;;;21.56;32.35;95369.59;6114700;28;103155;-67
2022/10/19 10:04:54;;;;;;;6.73;6.13;;;;;;;21.55;31.82;95368.03;6114874;28;103613;-67
2022/10/19 10:07:57;;;;;;;8.30;6.13;;;;;;;21.56;32.33;95356.28;6104368;28;103160;-68
2022/10/19 10:11:07;;;;;;;6.50;5.90;;;;;;;21.55;32.21;95352.03;6114801;28;103303;-68
2022/10/19 10:14:20;;;;;;;6.13;5.63;;;;;;;21.56;32.48;95346.41;6114244;28;103115;-67
2022/10/19 10:17:30;;;;;;;7.27;6.23;;;;;;;21.58;32.54;95351.44;6113946;28;103296;-68
2022/10/19 10:20:33;;;;;;;5.87;5.23;;;;;;;21.57;32.52;95341.88;6104504;28;103042;-68
2022/10/19 10:23:36;;;;;;;7.33;5.50;;;;;;;21.55;32.57;95344.06;6114075;28;103093;-68
2022/10/19 10:26:41;;;;;;;5.67;5.17;;;;;;;21.54;32.34;95327.28;6115072;28;103164;-68
2022/10/19 10:29:54;;;;;;;5.60;5.20;;;;;;;21.54;32.38;95316.63;6109211;28;103362;-68
2022/10/19 10:33:04;;;;;;;6.03;5.50;;;;;;;21.52;32.21;95308.16;6113554;28;102813;-67
2022/10/19 10:36:29;;;;;;;5.43;4.93;;;;;;;21.52;32.15;95306.28;6114709;28;102741;-67
2022/10/19 10:39:32;;;;;;;5.40;5.00;;;;;;;21.48;32.51;95305.28;6114649;28;103115;-67
2022/10/19 10:42:41;;;;;;;6.00;5.30;;;;;;;21.47;32.85;95290.38;6103695;28;103020;-68
2022/10/19 10:45:47;;;;;;;5.63;5.13;;;;;;;21.46;32.42;95288.81;6114169;28;102993;-67
2022/10/19 10:48:57;;;;;;;5.57;5.00;;;;;;;21.44;32.58;95288.31;6113224;28;103091;-67
2022/10/19 10:52:04;;;;;;;5.87;5.30;;;;;;;21.43;32.40;95280.63;6109755;28;103404;-68
2022/10/19 10:55:17;;;;;;;4.83;4.43;;;;;;;21.41;32.79;95272.16;6107713;28;103265;-68
2022/10/19 10:58:30;;;;;;;4.77;4.40;;;;;;;21.39;32.85;95261.00;6113791;28;103193;-67
2022/10/19 11:01:40;;;;;;;5.03;4.53;;;;;;;21.37;32.59;95261.31;6113994;28;103125;-67
2022/10/19 11:04:51;;;;;;;5.93;4.80;;;;;;;21.38;32.79;95254.09;6103732;28;103364;-67
2022/10/19 11:08:01;;;;;;;5.40;4.90;;;;;;;21.35;32.88;95254.72;6113146;28;103206;-68
2022/10/19 11:11:14;;;;;;;5.20;4.80;;;;;;;21.31;32.83;95254.47;6114380;28;103843;-67
2022/10/19 11:14:33;;;;;;;4.57;4.17;;;;;;;21.27;32.62;95250.06;6113621;28;103246;-67
2022/10/19 11:17:41;;;;;;;6.03;5.07;;;;;;;21.26;32.75;95245.81;6104155;28;103234;-67
2022/10/19 11:20:55;;;;;;;5.90;5.30;;;;;;;21.25;32.67;95244.25;6095949;28;103662;-68
2022/10/19 11:24:08;;;;;;;4.77;4.47;;;;;;;21.23;32.77;95233.88;6113188;28;103318;-68
2022/10/19 11:27:22;;;;;;;5.10;4.60;;;;;;;21.23;32.91;95236.56;6102938;28;103188;-68
2022/10/19 11:30:26;;;;;;;4.90;4.50;;;;;;;21.20;33.08;95232.63;6113147;28;103116;-68
2022/10/19 11:33:43;;;;;;;5.17;4.67;;;;;;;21.17;32.99;95221.75;6113341;28;103104;-68
2022/10/19 11:36:58;;;;;;;5.80;4.90;;;;;;;21.15;33.25;95223.91;6113258;28;103259;-68
2022/10/19 11:40:12;;;;;;;5.07;4.63;;;;;;;21.13;33.05;95218.88;6102727;28;103355;-68
2022/10/19 11:43:23;;;;;;;4.93;4.53;;;;;;;21.12;32.91;95216.53;6113438;28;103797;-68
2022/10/19 11:46:37;;;;;;;5.20;4.70;;;;;;;21.07;33.30;95217.41;6112680;28;103375;-68
2022/10/19 11:49:53;;;;;;;5.03;4.63;;;;;;;21.06;32.84;95209.72;6103522;28;103652;-68
2022/10/19 11:53:07;;;;;;;4.57;4.13;;;;;;;21.03;33.12;95192.47;6112097;28;103282;-68
2022/10/19 11:56:19;;;;;;;4.23;3.93;;;;;;;21.02;33.30;95198.06;6112309;28;103643;-68
2022/10/19 11:59:33;;;;;;;4.50;4.10;;;;;;;21.02;33.07;95190.09;6112382;28;103239;-68
2022/10/19 12:03:13;;;;;;;4.90;4.50;;;;;;;21.00;33.26;95185.03;6103224;28;103446;-68
2022/10/19 12:06:24;;;;;;;5.17;4.67;;;;;;;20.98;32.93;95187.22;6047853;28;103242;-68
2022/10/19 12:09:42;;;;;;;4.83;4.40;;;;;;;20.98;32.84;95186.44;6112223;28;103283;-68
2022/10/19 12:12:49;;;;;;;4.43;4.03;;;;;;;20.98;33.27;95178.44;6101561;28;103479;-69
2022/10/19 12:15:56;;;;;;;5.40;4.20;;;;;;;20.96;33.12;95177.97;6110936;28;103193;-69
2022/10/19 12:19:02;;;;;;;4.57;4.27;;;;;;;20.94;32.88;95175.59;6111925;28;103195;-68
2022/10/19 12:22:12;;;;;;;4.30;3.90;;;;;;;20.92;33.25;95167.91;6111664;28;103285;-68
2022/10/19 12:25:18;;;;;;;4.80;4.40;;;;;;;20.92;32.92;95177.75;6101082;28;103158;-68
2022/10/19 12:28:25;;;;;;;6.30;5.80;;;;;;;20.89;32.94;95173.03;6112011;28;103266;-68
2022/10/19 12:31:29;;;;;;;6.23;5.80;;;;;;;20.88;33.21;95168.81;6111946;28;103348;-68
2022/10/19 12:34:43;;;;;;;7.20;6.60;;;;;;;20.89;33.08;95165.84;6104335;28;103723;-69
2022/10/19 12:37:54;;;;;;;7.70;7.10;;;;;;;20.87;32.98;95170.66;6111997;28;103636;-68
2022/10/19 12:41:07;;;;;;;9.43;8.53;;;;;;;20.85;33.27;95159.53;6112256;28;104155;-68
2022/10/19 12:44:54;;;;;;;9.00;8.30;;;;;;;20.84;33.33;95165.94;6111522;28;103162;-69
2022/10/19 12:48:21;;;;;;;8.47;7.87;;;;;;;20.83;33.14;95153.69;6015334;28;103100;-68
2022/10/19 12:51:25;;;;;;;10.10;9.40;;;;;;;20.81;33.07;95160.41;6111267;28;103102;-69
2022/10/19 12:54:29;;;;;;;10.23;9.47;;;;;;;20.79;33.04;95166.03;6111662;28;103211;-69
2022/10/19 12:57:39;;;;;;;11.23;10.43;;;;;;;20.79;33.12;95160.69;6100444;28;102829;-68
2022/10/19 13:00:58;;;;;;;10.43;9.60;;;;;;;20.79;32.90;95158.03;6111453;28;103208;-69
2022/10/19 13:04:10;;;;;;;9.80;9.10;;;;;;;20.80;33.19;95159.63;6111465;28;103055;-68
2022/10/19 13:07:18;;;;;;;9.80;9.10;;;;;;;20.79;32.91;95163.34;6110615;28;102905;-69
2022/10/19 13:10:24;;;;;;;9.33;8.67;;;;;;;20.81;32.93;95160.41;6102888;28;105455;-70
2022/10/19 13:13:58;;;;;;;9.17;8.37;;;;;;;20.80;32.95;95161.50;6111454;28;103088;-69
2022/10/19 13:17:02;;;;;;;9.47;8.77;;;;;;;20.75;32.90;95157.06;6111294;28;103136;-69
2022/10/19 13:20:50;;;;;;;8.67;8.00;;;;;;;20.77;33.17;95154.88;6101516;28;103475;-69
2022/10/19 13:24:33;;;;;;;8.73;7.93;;;;;;;20.75;32.89;95153.63;6111136;28;103036;-68
2022/10/19 13:27:38;;;;;;;7.70;7.20;;;;;;;20.76;33.02;95149.88;6108230;28;103339;-68
2022/10/19 13:31:24;;;;;;;7.30;6.80;;;;;;;20.73;32.94;95145.94;6109776;28;103259;-68
2022/10/19 13:34:28;;;;;;;7.70;7.10;;;;;;;20.73;32.87;95151.25;6078051;28;103104;-67
2022/10/19 13:37:31;;;;;;;6.43;5.93;;;;;;;20.72;33.12;95146.22;6114812;28;103492;-68
2022/10/19 13:40:38;;;;;;;6.83;6.33;;;;;;;20.73;33.21;95143.28;6115955;28;103230;-68
2022/10/19 13:43:52;;;;;;;7.07;6.47;;;;;;;20.72;33.22;95147.00;6104545;28;103910;-68
2022/10/19 13:47:21;;;;;;;6.87;6.20;;;;;;;20.71;33.17;95137.47;6115458;28;103026;-68
2022/10/19 13:50:37;;;;;;;6.00;5.50;;;;;;;20.72;33.38;95132.94;6114959;28;103032;-67
2022/10/19 13:53:48;;;;;;;6.50;6.00;;;;;;;20.71;33.29;95128.69;6110494;28;104240;-68
2022/10/19 13:57:06;;;;;;;6.37;5.87;;;;;;;20.71;33.15;95137.47;6111485;28;103244;-68
2022/10/19 14:00:16;;;;;;;5.37;4.97;;;;;;;20.69;33.51;95128.22;6114736;28;103274;-67
2022/10/19 14:03:34;;;;;;;6.03;5.43;;;;;;;20.69;33.24;95121.00;6114254;28;103372;-68
2022/10/19 14:06:43;;;;;;;5.37;5.00;;;;;;;20.70;33.27;95122.59;6104695;28;103322;-67
2022/10/19 14:10:02;;;;;;;5.70;5.20;;;;;;;20.70;33.37;95117.28;6115153;28;103057;-69
2022/10/19 14:13:11;;;;;;;7.27;5.60;;;;;;;20.68;33.25;95116.78;6114585;28;103105;-68
2022/10/19 14:16:20;;;;;;;6.10;5.60;;;;;;;20.68;33.47;95111.47;6110613;28;102768;-68
2022/10/19 14:19:29;;;;;;;7.00;6.30;;;;;;;20.68;33.27;95113.34;6109757;28;103099;-69
2022/10/19 14:22:33;;;;;;;8.20;7.50;;;;;;;20.66;33.61;95116.25;6114674;28;103470;-69
2022/10/19 14:25:37;;;;;;;9.40;8.60;;;;;;;20.66;33.36;95116.25;6114875;28;103363;-69
2022/10/19 14:28:42;;;;;;;9.80;8.93;;;;;;;20.65;33.54;95120.00;6103665;28;103279;-69
2022/10/19 14:31:45;;;;;;;10.77;9.70;;;;;;;20.65;33.53;95116.56;6114341;28;103273;-69